logo
App data

Introvert Quest

Introvert Quest is a comedy based JRPG set in a fictional, modern setting. Experience the life of a socially awkward shut-in who is pushed into herculean tasks by his therapist.
Store | Hub | SteamDB
Developer: Amaterasu Software Publisher: Amaterasu Software
Genre: Adventure, Casual, Indie, RPG
Languages: English
Tags: Casual (64), Adventure (34), RPG (32), Indie (31), RPGMaker (13)
Category: Single-player, Steam Trading Cards
Release date: Mar 15, 2017
Price: $2.49 50%
Old userscore: 66% Owners: 100,000 .. 200,000
Followers: 719
Peak concurrent players yesterday: 2
Playtime total: 03:41 (average) 03:35 (median)

Steam Spy is still in beta, so expect major bugs.

Owners data:

Access restricted.

This feature is only available to users with special access rights. Sorry.

If you want to proceed, you need to register or log in first and then back Steam Spy on Patreon. Look for Indie or Pro pledge.

Don't forget to use the same email as on Steam Spy!

If you've recently backed Steam Spy on Patreon, please note, that it might take around 15 minutes for your access rights to sync. In most cases you'll need to re-login on Steam Spy too.

Audience in 2 weeks:

Access restricted.

This feature is only available to users with special access rights. Sorry.

If you want to proceed, you need to register or log in first and then back Steam Spy on Patreon. Look for Indie or Pro pledge.

Don't forget to use the same email as on Steam Spy!

If you've recently backed Steam Spy on Patreon, please note, that it might take around 15 minutes for your access rights to sync. In most cases you'll need to re-login on Steam Spy too.

Peak daily concurrent players:

CCU data courtesy of SteamDB. Used with permission.

Hourly concurrent players:

Daily Twitch stats:

Hourly Twitch stats:

Followers over time

Access restricted.

This feature is only available to users with special access rights. Sorry.

If you want to proceed, you need to register or log in first and then back Steam Spy on Patreon. Look for Indie or Pro pledge.

Don't forget to use the same email as on Steam Spy!

If you've recently backed Steam Spy on Patreon, please note, that it might take around 15 minutes for your access rights to sync. In most cases you'll need to re-login on Steam Spy too.

Views for top 50 videos on YouTube for this game:

Games similar to this one:

# Game Release date
Price
Score rank
(Userscore / Metascore)
Owners
Players
Playtime (Median)
1 上帝之城 I:监狱帝国 [City of God I - Prison Empire] Jul 9, 2018 $18.99N/A (N/A)50,000 .. 100,0000%00:00 (00:00)
2 Mainlining Jan 26, 2017 $2.59N/A (N/A/73%)0 .. 20,0000%00:00 (00:00)
3 Scanner Sombre Apr 26, 2017 $1.49N/A (N/A/67%)100,000 .. 200,0000%00:00 (00:00)
4 Domino Sky Apr 5, 2016 $0.99N/A (N/A)50,000 .. 100,0000%00:00 (00:00)
5 Yon Paradox May 6, 2016 $2.99N/A (N/A)0 .. 20,0000%00:00 (00:00)
6 Wrath of Anna Apr 2, 2018 $19.99N/A (N/A)50,000 .. 100,0000%00:00 (00:00)
7 Amigdala Mar 28, 2016 $5.99N/A (N/A)20,000 .. 50,0000%00:00 (00:00)
8 Blade Ballet Aug 9, 2016 $14.99N/A (N/A)0 .. 20,0000%00:00 (00:00)
9 Cube Land Arena Mar 29, 2016 $0.49N/A (N/A)50,000 .. 100,0000%00:00 (00:00)
10 Dashy Square Apr 25, 2016 $2.99N/A (N/A)0 .. 20,0000%00:00 (00:00)
11 Brute May 17, 2017 $6.99N/A (N/A)0 .. 20,0000%00:00 (00:00)
12 Moonstone Tavern - A Fantasy Tavern Sim! May 13, 2016 $7.99N/A (N/A)20,000 .. 50,0000%00:00 (00:00)
13 Hero Quest: Tower Conflict Apr 13, 2016 $0.49N/A (N/A)200,000 .. 500,0000%00:00 (00:00)
14 NORTH Apr 27, 2016 $0.49N/A (N/A)200,000 .. 500,0000%00:00 (00:00)
15 CrazyCars3D Mar 28, 2016 $2.99N/A (N/A)50,000 .. 100,0000%00:00 (00:00)
16 Deathwave Jun 9, 2016 $4.99N/A (N/A)0 .. 20,0000%00:00 (00:00)
17 MetaTron Dec 19, 2016 N/AN/A (N/A)0 .. 20,0000%00:00 (00:00)
18 Home is Where One Starts... May 12, 2015 $0.5N/A (N/A)20,000 .. 50,0000%00:00 (00:00)
19 In Space We Brawl Jul 17, 2015 N/AN/A (N/A)0 .. 20,0000%00:00 (00:00)
20 Beyond Eyes Aug 11, 2015 $2.99N/A (N/A/60%)100,000 .. 200,0000%00:00 (00:00)
21 Porcunipine May 21, 2015 $0.99N/A (N/A)20,000 .. 50,0000%00:00 (00:00)
22 Orbit HD Mar 18, 2015 $1.99N/A (N/A)20,000 .. 50,0000%00:00 (00:00)
23 Star Horizon May 15, 2020 $9.99N/A (N/A)0 .. 20,0000%00:00 (00:00)
24 Soccer Rage Jun 2, 2015 $9.99N/A (N/A)20,000 .. 50,0000%00:00 (00:00)
25 Bunker - The Underground Game May 21, 2015 $3.99N/A (N/A/70%)0 .. 20,0000%00:00 (00:00)
26 Big Action Mega Fight! Jan 12, 2016 $0.99N/A (N/A)20,000 .. 50,0000%00:00 (00:00)
27 Miner Warfare Apr 6, 2012 $1.01N/A (N/A)0 .. 20,0000%00:00 (00:00)
28 Inside My Radio May 11, 2015 $2.99N/A (N/A/68%)20,000 .. 50,0000%00:00 (00:00)
29 Reign of Bullets Aug 19, 2015 $4.99N/A (N/A)0 .. 20,0000%00:00 (00:00)
30 Gryphon Knight Epic Aug 20, 2015 $12.99N/A (N/A/55%)20,000 .. 50,0000%00:00 (00:00)
31 Leo’s Fortune - HD Edition Sep 8, 2015 $3.49N/A (N/A)0 .. 20,0000%00:00 (00:00)
32 Luckslinger Jul 16, 2015 $9.99N/A (N/A/76%)20,000 .. 50,0000%00:00 (00:00)
33 Centauri Sector Jun 24, 2015 $4.99N/A (N/A)20,000 .. 50,0000%00:00 (00:00)
34 Canabalt Apr 30, 2015 $1.19N/A (N/A)20,000 .. 50,0000%00:00 (00:00)
35 Warring States Jan 29, 2018 $18.99N/A (N/A)0 .. 20,0000%00:00 (00:00)
36 Montas Mar 24, 2014 $9.99N/A (N/A)0 .. 20,0000%00:00 (00:00)
37 Escape Goat 2 Mar 24, 2014 $4.99N/A (N/A/76%)50,000 .. 100,0000%00:00 (00:00)
38 Jones On Fire Mar 14, 2013 $0.74N/A (N/A)50,000 .. 100,0000%00:00 (00:00)
39 Survivor Squad Nov 8, 2013 $0.59N/A (N/A)100,000 .. 200,0000%00:00 (00:00)
40 10 Second Ninja Mar 5, 2014 $1.99N/A (N/A/72%)50,000 .. 100,0000%00:00 (00:00)
41 Montague's Mount Nov 19, 2013 $1.99N/A (N/A/39%)20,000 .. 50,0000%00:00 (00:00)
42 Labyrinthine Dreams May 26, 2015 $0.49N/A (N/A)20,000 .. 50,0000%00:00 (00:00)
43 Ballpoint Universe - Infinite Dec 17, 2013 $3.99N/A (N/A)50,000 .. 100,0000%00:00 (00:00)
44 Pulstar Jun 11, 2014 $0.59N/A (N/A)20,000 .. 50,0000%00:00 (00:00)
45 STARWHAL Sep 29, 2014 $11.99N/A (N/A)50,000 .. 100,0000%00:00 (00:00)
46 T.E.C. 3001 Apr 10, 2014 N/AN/A (N/A)20,000 .. 50,0000%00:00 (00:00)
47 A-Men Jan 25, 2014 $1.99N/A (N/A)0 .. 20,0000%00:00 (00:00)
48 Munin Jun 10, 2014 $0.49N/A (N/A/68%)200,000 .. 500,0000%00:00 (00:00)
49 Imagine Me Mar 14, 2014 $2.99N/A (N/A)20,000 .. 50,0000%00:00 (00:00)
50 4PM Jul 9, 2014 $2.99N/A (N/A/41%)0 .. 20,0000%00:00 (00:00)
51 Procyon Feb 26, 2014 $3.99N/A (N/A)20,000 .. 50,0000%00:00 (00:00)
52 Intensive Exposure Sep 6, 2016 $0.99N/A (N/A)0 .. 20,0000%00:00 (00:00)
53 Bohemian Killing Jul 21, 2016 $2.59N/A (N/A/55%)20,000 .. 50,0000%00:00 (00:00)
54 It Comes Around - A Kinetic Novel Sep 29, 2016 $2.99N/A (N/A)20,000 .. 50,0000%00:00 (00:00)
55 Pixel Cup Soccer 17 Aug 4, 2016 $9.99N/A (N/A)0 .. 20,0000%00:00 (00:00)
56 ORCS May 20, 2016 $0.49N/A (N/A)20,000 .. 50,0000%00:00 (00:00)
57 Alteric Jul 13, 2016 $1.99N/A (N/A)20,000 .. 50,0000%00:00 (00:00)
58 Reflection of Mine Feb 24, 2017 $2.39N/A (N/A)0 .. 20,0000%00:00 (00:00)
59 The Dark Legions Jul 9, 2016 $1.99N/A (N/A)0 .. 20,0000%00:00 (00:00)
60 Star Drifter Jun 1, 2016 $0.49N/A (N/A)200,000 .. 500,0000%00:00 (00:00)
61 You Deserve Aug 19, 2016 $0.99N/A (N/A)20,000 .. 50,0000%00:00 (00:00)
62 Karma Miwa Aug 12, 2016 $0.99N/A (N/A)20,000 .. 50,0000%00:00 (00:00)
63 Dinosaur Forest May 17, 2017 $0.49N/A (N/A)50,000 .. 100,0000%00:00 (00:00)
64 Super Duper Party Pooper Jun 6, 2016 $0.49N/A (N/A/40%)100,000 .. 200,0000%00:00 (00:00)
65 Showdown Adventure Sep 23, 2016 $2.99N/A (N/A)20,000 .. 50,0000%00:00 (00:00)
66 DashBored Jun 13, 2016 $4.99N/A (N/A)20,000 .. 50,0000%00:00 (00:00)
67 Joana's Life Sep 1, 2016 $2.99N/A (N/A)50,000 .. 100,0000%00:00 (00:00)
68 Robot Legions Reborn Jul 19, 2016 $1.49N/A (N/A)20,000 .. 50,0000%00:00 (00:00)
69 AdvertCity Apr 17, 2015 $19.99N/A (N/A)0 .. 20,0000%00:00 (00:00)
70 Pizza Express Jun 25, 2015 $0.69N/A (N/A)20,000 .. 50,0000%00:00 (00:00)
71 Broken Bots Jun 7, 2016 $6.99N/A (N/A)0 .. 20,0000%00:00 (00:00)
72 Hare In The Hat Apr 1, 2015 $0.69N/A (N/A)50,000 .. 100,0000%00:00 (00:00)
73 Pixel Star May 22, 2015 $1.49N/A (N/A)20,000 .. 50,0000%00:00 (00:00)
74 Kiai Resonance Apr 21, 2015 $1.24N/A (N/A)20,000 .. 50,0000%00:00 (00:00)
75 Polyball Dec 1, 2017 $11.24N/A (N/A)100,000 .. 200,0000%00:00 (00:00)
76 Spellsworn Mar 13, 2018 FreeN/A (N/A)200,000 .. 500,0000%00:00 (00:00)
77 Mysterious Space May 15, 2015 $10N/A (N/A)0 .. 20,0000%00:00 (00:00)
78 Luna Sky Oct 2, 2015 $12.99N/A (N/A)50,000 .. 100,0000%00:00 (00:00)
79 Treeker: The Lost Glasses Remake May 13, 2015 $2.99N/A (N/A)0 .. 20,0000%00:00 (00:00)
80 Interstellar Rift Sep 24, 2020 $13.39N/A (N/A)50,000 .. 100,0000%00:00 (00:00)
81 Season of 12 Colors Mar 14, 2016 $1.94N/A (N/A)20,000 .. 50,0000%00:00 (00:00)
82 Transcendence Jul 24, 2015 $6.74N/A (N/A)0 .. 20,0000%00:00 (00:00)
83 Cosmophony Jul 9, 2015 $4.99N/A (N/A)0 .. 20,0000%00:00 (00:00)
84 BRAWL Aug 13, 2015 $2.99N/A (N/A)0 .. 20,0000%00:00 (00:00)
85 Impossiball Aug 8, 2017 $0.49N/A (N/A)0 .. 20,0000%00:00 (00:00)
86 Captain Forever Remix Jun 3, 2016 $9.99N/A (N/A)50,000 .. 100,0000%00:00 (00:00)
87 Uriel's Chasm Sep 12, 2014 $0.74N/A (N/A)200,000 .. 500,0000%00:00 (00:00)
88 Rabbit Hole 3D: Steam Edition Apr 25, 2014 $2.99N/A (N/A)50,000 .. 100,0000%00:00 (00:00)
89 Cosmochoria Apr 27, 2015 $9.99N/A (N/A)20,000 .. 50,0000%00:00 (00:00)
90 Kromaia Oct 23, 2014 $19.99N/A (N/A/68%)20,000 .. 50,0000%00:00 (00:00)
91 Arson and Plunder: Unleashed Sep 25, 2015 $0.99N/A (N/A)20,000 .. 50,0000%00:00 (00:00)
92 ReignMaker Apr 16, 2014 $14.99N/A (N/A)50,000 .. 100,0000%00:00 (00:00)
93 Road Not Taken Aug 5, 2014 $5.24N/A (N/A/75%)50,000 .. 100,0000%00:00 (00:00)
94 Volt Apr 14, 2014 $0.99N/A (N/A)100,000 .. 200,0000%00:00 (00:00)
95 Pivvot Jul 14, 2014 $4.99N/A (N/A)0 .. 20,0000%00:00 (00:00)
96 Slip Apr 28, 2014 $0.99N/A (N/A)20,000 .. 50,0000%00:00 (00:00)
97 Stranded May 20, 2014 $0.59N/A (N/A)20,000 .. 50,0000%00:00 (00:00)
98 Vitrum Sep 25, 2012 $1.99N/A (N/A)0 .. 20,0000%00:00 (00:00)
99 TownCraft Feb 25, 2015 $9.99N/A (N/A)0 .. 20,0000%00:00 (00:00)
100 Three Dead Zed Jul 7, 2014 $5.99N/A (N/A)50,000 .. 100,0000%00:00 (00:00)
101 Dreaming Sarah Mar 12, 2015 $1.19N/A (N/A)200,000 .. 500,0000%00:00 (00:00)
102 Starship Corporation May 3, 2018 $3.99N/A (N/A)50,000 .. 100,0000%00:00 (00:00)
103 GORN Jul 18, 2019 $9.99N/A (N/A/85%)200,000 .. 500,0000%00:00 (00:00)
104 Wayout Nov 4, 2016 $0.49N/A (N/A)50,000 .. 100,0000%00:00 (00:00)
105 Open Sorcery Feb 22, 2017 $3.99N/A (N/A)0 .. 20,0000%00:00 (00:00)
106 Zolg Dec 2, 2016 $0.49N/A (N/A)20,000 .. 50,0000%00:00 (00:00)
107 Starship Annihilator Sep 2, 2016 $0.49N/A (N/A)20,000 .. 50,0000%00:00 (00:00)
108 99Vidas Dec 22, 2016 $1.29N/A (N/A/69%)50,000 .. 100,0000%00:00 (00:00)
109 The Gleam: VR Escape the Room Oct 14, 2016 $3.99N/A (N/A)100,000 .. 200,0000%00:00 (00:00)
110 Witch It Oct 22, 2020 $11.99N/A (N/A)200,000 .. 500,0000%00:00 (00:00)
111 mr.President Prologue Episode Sep 20, 2016 $0.49N/A (N/A)20,000 .. 50,0000%00:00 (00:00)
112 Distant Space Dec 20, 2016 $0.49N/A (N/A)20,000 .. 50,0000%00:00 (00:00)
113 AIRHEART - Tales of broken Wings Jul 23, 2018 $14.99N/A (N/A/62%)20,000 .. 50,0000%00:00 (00:00)
114 Child Phobia: Nightcoming Fears Dec 20, 2016 $1.99N/A (N/A)0 .. 20,0000%00:00 (00:00)
115 BoomTown! Deluxe Oct 14, 2016 $1.99N/A (N/A)20,000 .. 50,0000%00:00 (00:00)
116 Mistwood Heroes Dec 30, 2016 $0.49N/A (N/A)20,000 .. 50,0000%00:00 (00:00)
117 Pixel Gladiator Sep 8, 2017 $0.74N/A (N/A)20,000 .. 50,0000%00:00 (00:00)
118 Starship Theory Jul 4, 2017 $3.99N/A (N/A)20,000 .. 50,0000%00:00 (00:00)
119 Snake Pass Mar 28, 2017 $4.99N/A (N/A/71%)200,000 .. 500,0000%00:00 (00:00)
120 Action Alien Jun 26, 2015 $1.79N/A (N/A)50,000 .. 100,0000%00:00 (00:00)
121 Stardust Galaxy Warriors: Stellar Climax Nov 10, 2015 $9.99N/A (N/A)0 .. 20,0000%00:00 (00:00)
122 8Bit Fiesta - Party Game Sep 30, 2016 FreeN/A (N/A)20,000 .. 50,0000%00:00 (00:00)
123 Football, Tactics & Glory Jun 1, 2018 $14.99N/A (N/A)100,000 .. 200,0000%00:00 (00:00)
124 RETSNOM Jul 23, 2015 $1.69N/A (N/A)0 .. 20,0000%00:00 (00:00)
125 The Adventures of Mr. Bobley Jun 30, 2015 $0.99N/A (N/A)100,000 .. 200,0000%00:00 (00:00)
126 Dead In Bermuda Aug 27, 2015 $3.74N/A (N/A)20,000 .. 50,0000%00:00 (00:00)
127 Monument Jun 5, 2015 $0.49N/A (N/A)20,000 .. 50,0000%00:00 (00:00)
128 Aviary Attorney Dec 21, 2015 $10.49N/A (N/A/77%)50,000 .. 100,0000%00:00 (00:00)
129 Western Press Apr 21, 2016 $0.99N/A (N/A)20,000 .. 50,0000%00:00 (00:00)
130 none Nov 4, 2015 N/AN/A (N/A)20,000 .. 50,0000%00:00 (00:00)
131 Fortify Apr 8, 2016 $4.99N/A (N/A)0 .. 20,0000%00:00 (00:00)
132 Stray Cat Crossing Aug 28, 2015 $2.99N/A (N/A)20,000 .. 50,0000%00:00 (00:00)
133 Untamed: Life Of A Cougar Aug 27, 2015 $14.99N/A (N/A)0 .. 20,0000%00:00 (00:00)
134 Super Trench Attack 2 Nov 6, 2015 $2N/A (N/A)20,000 .. 50,0000%00:00 (00:00)
135 Sky Rogue Aug 24, 2017 $9.99N/A (N/A)0 .. 20,0000%00:00 (00:00)
136 Earth Overclocked Dec 4, 2015 $0.99N/A (N/A)20,000 .. 50,0000%00:00 (00:00)
137 Chariot Nov 12, 2014 $1.49N/A (N/A/76%)50,000 .. 100,0000%00:00 (00:00)
138 Curses 'N Chaos Aug 18, 2015 $9.99N/A (N/A)20,000 .. 50,0000%00:00 (00:00)
139 Frederic: Resurrection of Music May 16, 2014 $0.5N/A (N/A)100,000 .. 200,0000%00:00 (00:00)
140 Back to Bed Aug 6, 2014 $0.59N/A (N/A)500,000 .. 1,000,0000%00:00 (00:00)
141 Frederic: Evil Strikes Back May 23, 2014 $0.79N/A (N/A)50,000 .. 100,0000%00:00 (00:00)
142 NEON STRUCT May 20, 2015 $1.79N/A (N/A/62%)50,000 .. 100,0000%00:00 (00:00)
143 Rhythm Destruction Jun 16, 2014 $4.99N/A (N/A)50,000 .. 100,0000%00:00 (00:00)
144 OTTTD Aug 6, 2014 $1.99N/A (N/A)50,000 .. 100,0000%00:00 (00:00)
145 Boson X Sep 15, 2014 $1.49N/A (N/A)50,000 .. 100,0000%00:00 (00:00)
146 The Masterplan Jun 4, 2015 $19.99N/A (N/A/68%)100,000 .. 200,0000%00:00 (00:00)
147 TRISTOY Jan 15, 2015 $1.39N/A (N/A/49%)20,000 .. 50,0000%00:00 (00:00)
148 Velocibox Sep 8, 2014 $4.99N/A (N/A)50,000 .. 100,0000%00:00 (00:00)
149 Concursion Jun 6, 2014 $0.99N/A (N/A/66%)20,000 .. 50,0000%00:00 (00:00)
150 Squishy the Suicidal Pig Oct 23, 2014 $0.89N/A (N/A)200,000 .. 500,0000%00:00 (00:00)
151 Echo of the Wilds Jun 10, 2014 $4.54N/A (N/A)0 .. 20,0000%00:00 (00:00)
152 Great Permutator Sep 15, 2014 $0.76N/A (N/A)20,000 .. 50,0000%00:00 (00:00)
153 Fancy Skulls Jun 16, 2014 $3.05N/A (N/A)20,000 .. 50,0000%00:00 (00:00)
154 Unmechanical Aug 8, 2012 $9.99N/A (N/A/74%)100,000 .. 200,0000%00:00 (00:00)
155 Dream Jul 31, 2015 $1.79N/A (N/A/59%)50,000 .. 100,0000%00:00 (00:00)
156 Sugar Cube: Bittersweet Factory Nov 7, 2012 $1.74N/A (N/A)20,000 .. 50,0000%00:00 (00:00)
157 BIT.TRIP BEAT Nov 2, 2010 $3.99N/A (N/A)200,000 .. 500,0000%00:00 (00:00)
158 Guns of Icarus Alliance Mar 31, 2017 $0.74N/A (N/A)100,000 .. 200,0000%00:00 (00:00)
159 Party of Sin Dec 13, 2012 $2.99N/A (N/A)50,000 .. 100,0000%00:00 (00:00)
160 Super Splatters Jun 26, 2013 N/AN/A (N/A/73%)50,000 .. 100,0000%00:00 (00:00)
161 The Archotek Project Apr 28, 2017 $0.99N/A (N/A)200,000 .. 500,0000%00:00 (00:00)
162 Home Jun 1, 2012 $4.99N/A (N/A/69%)200,000 .. 500,0000%00:00 (00:00)
163 Ms. Splosion Man Apr 3, 2013 $2.49N/A (N/A)20,000 .. 50,0000%00:00 (00:00)
164 Ultratron Mar 18, 2013 $4.99N/A (N/A)100,000 .. 200,0000%00:00 (00:00)
165 SOL: Exodus Jan 25, 2012 $7.99N/A (N/A/57%)50,000 .. 100,0000%00:00 (00:00)
166 Cargo Commander Nov 1, 2012 $1.99N/A (N/A)100,000 .. 200,0000%00:00 (00:00)
167 Titan Attacks! Feb 3, 2012 $4.99N/A (N/A)50,000 .. 100,0000%00:00 (00:00)
168 Puddle Nov 9, 2012 $7.99N/A (N/A)50,000 .. 100,0000%00:00 (00:00)
169 Tales From Space: Mutant Blobs Attack Aug 15, 2012 $2.99N/A (N/A/83%)100,000 .. 200,0000%00:00 (00:00)
170 Retro/Grade Mar 20, 2013 $2.49N/A (N/A)50,000 .. 100,0000%00:00 (00:00)
171 All Zombies Must Die!: Scorepocalypse Apr 19, 2012 $4.99N/A (N/A)20,000 .. 50,0000%00:00 (00:00)
172 Papo & Yo Apr 18, 2013 $14.99N/A (N/A/70%)200,000 .. 500,0000%00:00 (00:00)
173 Moonbase 332 May 20, 2015 $4.99N/A (N/A)20,000 .. 50,0000%00:00 (00:00)
174 Morphine Oct 26, 2015 $0.74N/A (N/A)20,000 .. 50,0000%00:00 (00:00)
175 Kitchen Simulator 2015 Sep 4, 2015 $0.69N/A (N/A)50,000 .. 100,0000%00:00 (00:00)
176 Redemption: Eternal Quest Aug 28, 2015 $1.19N/A (N/A)100,000 .. 200,0000%00:00 (00:00)
177 ChargeShot Sep 18, 2015 $2.99N/A (N/A)20,000 .. 50,0000%00:00 (00:00)
178 Angry Arrows Aug 12, 2015 $2.49N/A (N/A)20,000 .. 50,0000%00:00 (00:00)
179 Press X to Not Die Oct 6, 2017 $0.74N/A (N/A)100,000 .. 200,0000%00:00 (00:00)
180 The Musketeers: Victoria's Quest Jan 7, 2014 $0.51N/A (N/A)0 .. 20,0000%00:00 (00:00)
181 1,000 Heads Among the Trees Dec 11, 2015 $4.99N/A (N/A)100,000 .. 200,0000%00:00 (00:00)
182 Void Invaders Aug 14, 2015 $0.5N/A (N/A)20,000 .. 50,0000%00:00 (00:00)
183 Dream Factory Nov 2, 2015 $9.99N/A (N/A)20,000 .. 50,0000%00:00 (00:00)
184 Blaster Shooter GunGuy! Aug 10, 2015 $0.99N/A (N/A)50,000 .. 100,0000%00:00 (00:00)
185 Timber and Stone Oct 20, 2015 $4.99N/A (N/A)20,000 .. 50,0000%00:00 (00:00)
186 Wild Island Quest Sep 4, 2015 $0.49N/A (N/A)50,000 .. 100,0000%00:00 (00:00)
187 The Purring Quest Nov 12, 2015 $1.09N/A (N/A)100,000 .. 200,0000%00:00 (00:00)
188 Shmadow Nov 3, 2015 $1.99N/A (N/A)20,000 .. 50,0000%00:00 (00:00)
189 Perraw - FPS Clone War Alpha Jan 29, 2016 $0.49N/A (N/A)0 .. 20,0000%00:00 (00:00)
190 Traverser Jul 9, 2015 $2.99N/A (N/A/61%)0 .. 20,0000%00:00 (00:00)
191 Chronicles of a Dark Lord: Episode 1 Tides of Fate Complete Dec 19, 2014 N/AN/A (N/A)50,000 .. 100,0000%00:00 (00:00)
192 The Deer God Feb 27, 2015 $14.99N/A (N/A/59%)20,000 .. 50,0000%00:00 (00:00)
193 Ninja Pizza Girl Sep 30, 2015 $0.69N/A (N/A/82%)50,000 .. 100,0000%00:00 (00:00)
194 Pix the Cat Jan 29, 2015 $1.49N/A (N/A/77%)50,000 .. 100,0000%00:00 (00:00)
195 Cavern Kings Sep 30, 2014 $9.99N/A (N/A)20,000 .. 50,0000%00:00 (00:00)
196 Tulpa Jan 29, 2015 $2.99N/A (N/A)50,000 .. 100,0000%00:00 (00:00)
197 Disorder Jan 12, 2015 $3.99N/A (N/A/61%)20,000 .. 50,0000%00:00 (00:00)
198 Phoenix Force Nov 13, 2014 $0.49N/A (N/A)20,000 .. 50,0000%00:00 (00:00)
199 iO Dec 5, 2014 $2.49N/A (N/A)50,000 .. 100,0000%00:00 (00:00)
200 Marvin's Mittens Dec 17, 2014 $5.99N/A (N/A)0 .. 20,0000%00:00 (00:00)
201 Horizon Shift May 29, 2015 $0.99N/A (N/A)100,000 .. 200,0000%00:00 (00:00)
202 Dwarf Tower May 5, 2014 $0.99N/A (N/A)20,000 .. 50,0000%00:00 (00:00)
203 Instant Dungeon! Nov 25, 2014 $1.33N/A (N/A)0 .. 20,0000%00:00 (00:00)
204 Sky Mercenaries Dec 16, 2014 $9.99N/A (N/A)20,000 .. 50,0000%00:00 (00:00)
205 Super Life of Pixel Dec 20, 2018 $9.99N/A (N/A)20,000 .. 50,0000%00:00 (00:00)
206 Bloody Streets Mar 12, 2015 $1.99N/A (N/A)20,000 .. 50,0000%00:00 (00:00)
207 PERFECT ANGLE: The puzzle game based on optical illusions Dec 22, 2015 $2.49N/A (N/A)20,000 .. 50,0000%00:00 (00:00)
208 Mindless Running Feb 22, 2016 $0.49N/A (N/A)20,000 .. 50,0000%00:00 (00:00)
209 TurnOn Jun 1, 2016 $14.99N/A (N/A/67%)20,000 .. 50,0000%00:00 (00:00)
210 Days Under Custody Nov 23, 2015 $4.99N/A (N/A)20,000 .. 50,0000%00:00 (00:00)
211 IMSCARED Jan 31, 2016 $3.99N/A (N/A)20,000 .. 50,0000%00:00 (00:00)
212 Heavy Gear Assault Feb 10, 2017 $39.99N/A (N/A)20,000 .. 50,0000%00:00 (00:00)
213 Tiny Guardians Mar 24, 2016 $9.99N/A (N/A)0 .. 20,0000%00:00 (00:00)
214 Planet Diver Nov 30, 2015 $3.99N/A (N/A)0 .. 20,0000%00:00 (00:00)
215 Doodle Kingdom Jun 9, 2016 $3.14N/A (N/A)50,000 .. 100,0000%00:00 (00:00)
216 Cosmic Leap Mar 17, 2016 $0.49N/A (N/A)20,000 .. 50,0000%00:00 (00:00)
217 Evertown Jan 30, 2020 $1.99N/A (N/A)0 .. 20,0000%00:00 (00:00)
218 Godus Wars Feb 3, 2016 $14.99N/A (N/A)50,000 .. 100,0000%00:00 (00:00)
219 Flobe Jan 23, 2016 $0.99N/A (N/A)0 .. 20,0000%00:00 (00:00)
220 Bell Ringer Mar 6, 2016 $6.99N/A (N/A)100,000 .. 200,0000%00:00 (00:00)
221 10 Second Ninja X Jul 19, 2016 $0.99N/A (N/A)200,000 .. 500,0000.79%00:02 (00:00)
222 Space Moth DX Jan 22, 2016 $4.99N/A (N/A)20,000 .. 50,0000%00:00 (00:00)
223 Empire of the Gods May 13, 2008 $0.99N/A (N/A)50,000 .. 100,0000%00:00 (00:00)
224 stratO Jun 1, 2015 $4.99N/A (N/A)0 .. 20,0000%00:00 (00:00)
225 Reflections Jun 26, 2015 $9.99N/A (N/A)0 .. 20,0000%00:00 (00:00)
226 It came from space and ate our brains Mar 19, 2015 $8.99N/A (N/A)200,000 .. 500,0000%00:00 (00:00)
227 Bermuda Mar 17, 2015 $2.99N/A (N/A)50,000 .. 100,0000%00:00 (00:00)
228 Disillusions Manga Horror Apr 6, 2013 $0.66N/A (N/A)20,000 .. 50,0000%00:00 (00:00)
229 Predestination Feb 26, 2019 $29.99N/A (N/A)0 .. 20,0000%00:00 (00:00)
230 Three Fourths Home: Extended Edition Mar 20, 2015 $0.74N/A (N/A/77%)20,000 .. 50,0000%00:00 (00:00)
231 TIMEframe Jul 7, 2015 $0.95N/A (N/A)50,000 .. 100,0000%00:00 (00:00)
232 Rats - Time is running out! Aug 19, 2015 $2.74N/A (N/A)20,000 .. 50,0000%00:00 (00:00)
233 Tomb of Tyrants Jun 25, 2015 $2.71N/A (N/A)20,000 .. 50,0000%00:00 (00:00)
234 Starship Traveller Mar 11, 2015 $1.49N/A (N/A)0 .. 20,0000%00:00 (00:00)
235 On A Roll 3D Feb 12, 2015 $2.99N/A (N/A)50,000 .. 100,0000%00:00 (00:00)
236 Copy Kitty Apr 19, 2018 $3.74N/A (N/A)0 .. 20,0000%00:00 (00:00)
237 Glorkian Warrior: The Trials Of Glork Mar 24, 2015 $1.59N/A (N/A)20,000 .. 50,0000%00:00 (00:00)
238 BlastZone 2 Feb 19, 2015 $2.49N/A (N/A)20,000 .. 50,0000%00:00 (00:00)
239 Countless Rooms of Death Feb 20, 2014 $0.99N/A (N/A)20,000 .. 50,0000%00:00 (00:00)
240 Scribble Space Jun 1, 2015 $1.99N/A (N/A)20,000 .. 50,0000%00:00 (00:00)
241 Gentlemen! Nov 5, 2013 $1.24N/A (N/A)20,000 .. 50,0000%00:00 (00:00)
242 The Novelist Dec 10, 2013 $0.99N/A (N/A/66%)100,000 .. 200,0000%00:00 (00:00)
243 Bad Hotel Oct 16, 2013 $4.99N/A (N/A)50,000 .. 100,0000%00:00 (00:00)
244 Knytt Underground Oct 25, 2013 $1.39N/A (N/A)50,000 .. 100,0000%00:00 (00:00)
245 Godus At some point $14.99N/A (N/A)50,000 .. 100,0000%00:00 (00:00)
246 Omegalodon Mar 9, 2012 $9.99N/A (N/A)20,000 .. 50,0000%00:00 (00:00)
247 Wake At some point $4.99N/A (N/A)0 .. 20,0000%00:00 (00:00)
248 Escape Goat Jun 14, 2012 $2.49N/A (N/A)20,000 .. 50,0000%00:00 (00:00)
249 Zack Zero Apr 29, 2013 $2.99N/A (N/A)50,000 .. 100,0000%00:00 (00:00)
250 Constant C Mar 7, 2014 $9.99N/A (N/A/60%)0 .. 20,0000%00:00 (00:00)
251 Element4l May 24, 2013 $8.99N/A (N/A/77%)50,000 .. 100,0000%00:00 (00:00)
252 Solar Flux Oct 24, 2013 $9.99N/A (N/A)100,000 .. 200,0000%00:00 (00:00)
253 Intake Nov 5, 2013 $9.99N/A (N/A)20,000 .. 50,0000%00:00 (00:00)
254 Maia Nov 23, 2018 $24.99N/A (N/A)0 .. 20,0000%00:00 (00:00)
255 Super Puzzle Platformer Deluxe May 24, 2013 $1.59N/A (N/A)20,000 .. 50,0000%00:00 (00:00)
256 FOTONICA Nov 6, 2014 $1.49N/A (N/A/71%)50,000 .. 100,0000%00:00 (00:00)
257 Poöf Nov 8, 2013 $6.99N/A (N/A)20,000 .. 50,0000%00:00 (00:00)

Tags over time:

Access restricted.

This feature is only available to users with special access rights. Sorry.

If you want to proceed, you need to register or log in first and then back Steam Spy on Patreon. Look for Indie or Pro pledge.

Don't forget to use the same email as on Steam Spy!

If you've recently backed Steam Spy on Patreon, please note, that it might take around 15 minutes for your access rights to sync. In most cases you'll need to re-login on Steam Spy too.

Owners of this game also own:

Access restricted.

This feature is only available to users with special access rights. Sorry.

If you want to proceed, you need to register or log in first and then back Steam Spy on Patreon. Look for Indie or Pro pledge.

Don't forget to use the same email as on Steam Spy!

If you've recently backed Steam Spy on Patreon, please note, that it might take around 15 minutes for your access rights to sync. In most cases you'll need to re-login on Steam Spy too.

Playtime distribution:

Access restricted.

This feature is only available to users with special access rights. Sorry.

If you want to proceed, you need to register or log in first and then back Steam Spy on Patreon. Look for Indie or Pro pledge.

Don't forget to use the same email as on Steam Spy!

If you've recently backed Steam Spy on Patreon, please note, that it might take around 15 minutes for your access rights to sync. In most cases you'll need to re-login on Steam Spy too.

Playtime (2 weeks):

Access restricted.

This feature is only available to users with special access rights. Sorry.

If you want to proceed, you need to register or log in first and then back Steam Spy on Patreon. Look for Indie or Pro pledge.

Don't forget to use the same email as on Steam Spy!

If you've recently backed Steam Spy on Patreon, please note, that it might take around 15 minutes for your access rights to sync. In most cases you'll need to re-login on Steam Spy too.

User reviews:

Login required.

Please register or log in to see this information.